WHISKEYTOWN DAM (USBR) (WHI)

Elevation: 1210' · SACRAMENTO R basin · Operator: US Bureau of Reclamation

Provisional data, subject to change.
Query executed Thursday at 23:08:04   clock

Select a sensor type for a plot of data.
Note: Reservoir Flows are daily averages.

Earlier

Date RES ELE    STORAGE    RES CHG    OUTFLOW    INFLOW    EVAP    RIV REL    PPT INC    RAIN    SPILL    DIS PWR   
 FEET   AF   AF   CFS   CFS   CFS   CFS   INCHES   INCHES   CFS   CFS  
04/29/2015 1207.88 234338 1514 196 976 17 182 0.00 49.92 0 14
04/30/2015 1208.35 235829 1491 196 964 16 182 0.00 49.92 0 14
05/01/2015 1208.34 235798 -31 196 196 16 182 0.00 49.92 0 14
05/02/2015 1208.37 235893 95 196 273 29 182 0.00 49.92 0 14
05/03/2015 1208.31 235702 -- 196 114 14 182 0.00 49.92 0 14
05/04/2015 1208.31 235702 0 196 219 23 182 0.00 49.92 0 14
05/05/2015 1208.21 235384 -- 196 48 12 182 0.00 49.92 0 14
05/06/2015 1208.10 235035 -349 197 33 12 183 0.00 49.92 0 14
05/07/2015 1208.27 235575 540 203 500 25 183 0.00 49.92 0 20
05/08/2015 1208.43 236084 509 197 473 19 183 0.00 49.92 0 14
05/09/2015 1208.60 236624 540 200 491 19 183 0.00 49.92 0 17
05/10/2015 1208.52 236370 -254 197 88 19 183 0.00 49.92 0 14
05/11/2015 1208.67 236846 476 197 486 49 183 0.06 49.98 0 14
05/12/2015 1208.72 237005 159 200 329 49 183 0.06 50.04 0 17
05/13/2015 1208.61 236656 -349 197 34 13 183 0.09 50.13 0 14
05/14/2015 1208.53 236401 -255 196 81 14 182 0.13 50.26 0 14
05/15/2015 1208.62 236687 286 196 356 16 182 0.00 50.26 0 14
05/16/2015 1208.68 236878 191 196 292 0 182 0.05 50.31 0 14
05/17/2015 1208.76 237132 254 196 327 3 182 0.09 50.40 0 14
05/18/2015 1208.97 237800 668 385 745 23 371 0.00 50.40 0 14
05/19/2015 1208.97 237800 0 593 606 13 579 0.01 50.41 0 14
05/20/2015 1208.85 237418 -382 694 506 5 677 0.02 50.43 0 17
05/21/2015 1208.74 237069 -349 781 619 14 767 0.13 50.56 0 14
05/22/2015 1208.64 236751 -318 819 684 25 802 0.12 50.68 0 17
05/23/2015 1208.58 236560 -191 701 624 19 687 0.00 50.68 0 14
05/24/2015 1208.69 236910 350 551 748 21 537 0.00 50.68 0 14
05/25/2015 1208.81 237291 381 426 639 21 375 0.00 50.68 0 51
05/26/2015 1209.07 238119 828 299 739 23 284 0.00 50.68 0 15
05/27/2015 1209.32 238919 800 231 658 24 207 0.00 50.68 0 24
05/28/2015 -- -- -- -- -- -- -- -- -- -- --

Later | Latest

Warning! This data is preliminary and subject to revision.

Show WHI Map | Plot WHI Data | 1 Month WHI Data | Real-Time WHI Data | WHI Info